createdAt,value
2023-09-07T00:00:28.783Z,12.60
2023-09-07T00:02:55.989Z,13.50
2023-09-07T00:05:23.172Z,12.80
2023-09-07T00:07:50.236Z,13.60
2023-09-07T00:10:18.897Z,12.80
2023-09-07T00:12:45.901Z,13.60
2023-09-07T00:15:12.994Z,13.10
2023-09-07T00:17:40.378Z,13.40
2023-09-07T00:20:11.995Z,12.70
2023-09-07T00:22:39.447Z,13.30
2023-09-07T00:25:08.840Z,12.00
2023-09-07T00:27:35.985Z,14.70
2023-09-07T00:30:06.053Z,13.00
2023-09-07T00:32:34.912Z,12.50
2023-09-07T00:35:02.887Z,12.20
2023-09-07T00:37:30.089Z,13.10
2023-09-07T00:39:57.192Z,13.10
2023-09-07T00:42:24.040Z,13.40
2023-09-07T00:44:51.053Z,13.00
2023-09-07T00:47:18.021Z,12.90
2023-09-07T00:49:45.275Z,12.30
2023-09-07T00:52:12.502Z,13.20
2023-09-07T00:54:41.939Z,13.20
2023-09-07T00:57:09.442Z,13.30
2023-09-07T00:59:37.099Z,14.00
2023-09-07T01:02:06.943Z,13.50
2023-09-07T01:04:34.508Z,13.10
2023-09-07T01:07:18.466Z,13.10
2023-09-07T01:09:48.212Z,13.10
2023-09-07T01:12:16.465Z,12.70
2023-09-07T01:14:44.013Z,11.50
2023-09-07T01:17:13.063Z,13.20
2023-09-07T01:19:40.433Z,12.10
2023-09-07T01:22:11.666Z,12.70
2023-09-07T01:24:40.080Z,13.00
2023-09-07T01:27:07.727Z,12.90
2023-09-07T01:29:35.109Z,12.00
2023-09-07T01:32:02.316Z,12.40
2023-09-07T01:34:29.522Z,12.80
2023-09-07T01:36:56.580Z,12.70
2023-09-07T01:39:23.756Z,12.70
2023-09-07T01:41:50.779Z,12.10
2023-09-07T01:44:17.733Z,12.40
2023-09-07T01:46:45.029Z,12.50
2023-09-07T01:49:12.173Z,11.40
2023-09-07T01:51:39.186Z,11.30
2023-09-07T01:54:06.759Z,12.30
2023-09-07T01:56:33.908Z,12.30
2023-09-07T01:59:01.022Z,12.40
2023-09-07T02:01:31.773Z,12.20
2023-09-07T02:03:59.329Z,11.30
2023-09-07T02:06:26.342Z,12.50
2023-09-07T02:08:53.350Z,12.30
2023-09-07T02:11:20.492Z,11.60
2023-09-07T02:13:49.353Z,12.20
2023-09-07T02:16:16.765Z,11.90
2023-09-07T02:18:47.080Z,11.20
2023-09-07T02:21:17.075Z,12.40
2023-09-07T02:23:44.022Z,12.40
2023-09-07T02:26:11.056Z,12.40
2023-09-07T02:28:38.086Z,12.10
2023-09-07T02:31:06.546Z,12.20
2023-09-07T02:33:34.317Z,12.50
2023-09-07T02:36:01.520Z,12.60
2023-09-07T02:38:28.380Z,12.10
2023-09-07T02:40:57.286Z,11.90
2023-09-07T02:43:24.417Z,11.90
2023-09-07T02:45:51.978Z,11.90
2023-09-07T02:48:19.151Z,11.80
2023-09-07T02:50:50.533Z,11.90
2023-09-07T02:53:17.850Z,12.00
2023-09-07T02:55:44.854Z,11.90
2023-09-07T04:17:33.863Z,11.40
2023-09-07T04:20:00.871Z,11.20
2023-09-07T04:22:27.864Z,11.20
2023-09-07T04:24:54.908Z,11.30
2023-09-07T04:27:22.049Z,11.30
2023-09-07T04:29:50.965Z,11.20
2023-09-07T04:32:17.929Z,10.60
2023-09-07T04:34:45.110Z,11.10
2023-09-07T04:37:13.517Z,11.20
2023-09-07T04:39:41.461Z,11.10
2023-09-07T04:42:16.314Z,10.90
2023-09-07T04:44:43.466Z,11.00
2023-09-07T04:47:10.340Z,11.00
2023-09-07T04:49:37.377Z,10.80
2023-09-07T04:52:04.589Z,11.10
2023-09-07T04:54:31.683Z,11.10
2023-09-07T04:56:58.710Z,10.60
2023-09-07T04:59:25.740Z,10.80
2023-09-07T05:01:52.856Z,11.10
2023-09-07T05:04:19.866Z,11.10
2023-09-07T05:06:47.164Z,11.20
2023-09-07T05:09:14.360Z,11.30
2023-09-07T05:11:41.266Z,11.30
2023-09-07T05:14:08.262Z,11.30
2023-09-07T05:16:35.263Z,11.20
2023-09-07T05:19:02.184Z,11.40
2023-09-07T05:21:29.107Z,11.40
2023-09-07T05:23:56.284Z,11.40
2023-09-07T05:26:25.180Z,11.40
2023-09-07T05:28:52.418Z,11.60
2023-09-07T05:31:19.602Z,11.60
2023-09-07T05:33:46.532Z,11.90
2023-09-07T05:36:13.634Z,11.80
2023-09-07T05:38:40.699Z,12.00
2023-09-07T05:41:08.398Z,12.20
2023-09-07T05:43:35.293Z,12.20
2023-09-07T05:46:02.710Z,12.30
2023-09-07T05:48:30.016Z,12.50
2023-09-07T05:50:57.859Z,12.60
2023-09-07T05:53:25.971Z,12.80
2023-09-07T05:55:53.482Z,13.00
2023-09-07T05:58:20.512Z,13.10
2023-09-07T06:00:47.557Z,13.20
2023-09-07T06:03:14.669Z,13.40
2023-09-07T06:05:41.851Z,13.50
2023-09-07T06:08:08.938Z,13.70
2023-09-07T06:10:36.096Z,13.90
2023-09-07T06:13:04.362Z,14.10
2023-09-07T06:15:32.168Z,14.30
2023-09-07T06:17:59.420Z,14.40
2023-09-07T06:20:26.609Z,14.60
2023-09-07T06:22:53.584Z,14.90
2023-09-07T06:25:21.448Z,15.00
2023-09-07T06:27:48.457Z,15.20
2023-09-07T06:30:15.422Z,15.40
2023-09-07T06:32:43.430Z,15.60
2023-09-07T06:35:11.494Z,15.90
2023-09-07T06:37:41.452Z,16.20
2023-09-07T06:40:10.033Z,16.30
2023-09-07T06:42:36.898Z,16.40
2023-09-07T06:45:04.093Z,16.40
2023-09-07T06:47:31.727Z,16.60
2023-09-07T06:49:58.942Z,16.70
2023-09-07T06:52:25.960Z,17.00
2023-09-07T06:54:54.720Z,17.10
2023-09-07T06:57:21.920Z,17.30
2023-09-07T06:59:49.779Z,17.50
2023-09-07T07:02:16.755Z,17.60
2023-09-07T07:04:45.198Z,17.80
2023-09-07T07:07:12.386Z,18.00
2023-09-07T07:09:39.329Z,18.30
2023-09-07T07:12:06.613Z,18.60
2023-09-07T07:14:33.708Z,18.80
2023-09-07T07:17:02.943Z,19.20
2023-09-07T07:19:30.148Z,19.50
2023-09-07T07:21:57.082Z,19.90
2023-09-07T07:24:23.974Z,20.30
2023-09-07T07:26:50.912Z,20.50
2023-09-07T07:29:17.788Z,20.70
2023-09-07T07:31:45.232Z,21.10
2023-09-07T07:34:12.130Z,21.40
2023-09-07T07:36:39.064Z,21.80
2023-09-07T07:39:08.464Z,22.10
2023-09-07T07:41:36.155Z,22.40
2023-09-07T07:44:04.062Z,22.80
2023-09-07T07:46:31.062Z,23.30
2023-09-07T07:48:57.969Z,23.40
2023-09-07T07:51:24.975Z,24.10
2023-09-07T07:53:51.974Z,24.80
2023-09-07T07:56:19.711Z,25.50
2023-09-07T07:58:46.674Z,26.10
2023-09-07T08:01:16.666Z,26.20
2023-09-07T08:03:44.192Z,26.40
2023-09-07T08:06:12.342Z,26.90
2023-09-07T08:08:40.842Z,27.40
2023-09-07T08:11:08.291Z,27.50
2023-09-07T08:13:35.546Z,28.50
2023-09-07T08:16:03.363Z,29.20
2023-09-07T08:18:36.725Z,29.30
2023-09-07T08:21:04.183Z,29.70
2023-09-07T08:23:31.043Z,30.00
2023-09-07T08:25:58.215Z,31.30
2023-09-07T08:28:26.678Z,31.20
2023-09-07T08:30:54.815Z,32.00
2023-09-07T08:33:24.398Z,32.50
2023-09-07T08:35:56.556Z,33.10
2023-09-07T08:38:27.137Z,33.40
2023-09-07T08:40:57.137Z,33.60
2023-09-07T08:43:24.696Z,33.30
2023-09-07T08:46:06.034Z,34.50
2023-09-07T08:48:33.923Z,34.60
2023-09-07T08:51:02.159Z,34.00
2023-09-07T08:53:31.320Z,34.80
2023-09-07T08:55:58.950Z,35.70
2023-09-07T08:58:25.968Z,34.60
2023-09-07T09:00:54.037Z,34.70
2023-09-07T09:03:21.788Z,34.90
2023-09-07T09:05:52.358Z,36.50
2023-09-07T09:08:21.561Z,36.90
2023-09-07T09:10:48.796Z,36.00
2023-09-07T09:13:15.972Z,35.40
2023-09-07T09:15:43.021Z,35.10
2023-09-07T09:18:13.709Z,37.10
2023-09-07T09:20:40.992Z,38.90
2023-09-07T09:23:08.497Z,39.50
2023-09-07T09:25:35.678Z,39.90
2023-09-07T09:28:03.498Z,39.70
2023-09-07T09:30:30.545Z,39.90
2023-09-07T09:32:59.815Z,39.70
2023-09-07T09:35:27.786Z,39.80
2023-09-07T09:37:54.675Z,40.70
2023-09-07T09:40:22.540Z,40.10
2023-09-07T09:42:51.011Z,39.20
2023-09-07T09:45:20.141Z,38.10
2023-09-07T09:47:49.075Z,38.60
2023-09-07T09:50:18.131Z,39.00
2023-09-07T09:52:46.702Z,39.60
2023-09-07T09:55:14.598Z,39.30
2023-09-07T09:57:41.660Z,37.90
2023-09-07T10:00:16.977Z,37.90
2023-09-07T10:02:48.165Z,37.50
2023-09-07T10:05:15.952Z,37.40
2023-09-07T10:07:44.518Z,36.60
2023-09-07T10:10:14.060Z,37.80
2023-09-07T10:12:42.574Z,40.00
2023-09-07T10:15:21.730Z,41.20
2023-09-07T10:17:51.402Z,39.80
2023-09-07T10:20:19.388Z,40.20
2023-09-07T10:22:46.386Z,39.90
2023-09-07T10:25:22.975Z,40.90
2023-09-07T10:27:50.496Z,39.30
2023-09-07T10:30:20.593Z,40.10
2023-09-07T10:32:47.665Z,40.60
2023-09-07T10:35:17.586Z,40.60
2023-09-07T10:37:48.351Z,40.40
2023-09-07T10:40:22.506Z,40.10
2023-09-07T10:42:49.698Z,38.80
2023-09-07T10:45:18.166Z,38.10
2023-09-07T10:47:47.086Z,38.20
2023-09-07T10:50:16.336Z,39.30
2023-09-07T10:52:43.782Z,41.00
2023-09-07T10:55:13.948Z,40.90
2023-09-07T10:57:45.928Z,40.10
2023-09-07T11:00:14.831Z,40.10
2023-09-07T11:02:43.844Z,39.90
2023-09-07T11:05:11.987Z,40.50
2023-09-07T11:07:40.751Z,40.50
2023-09-07T11:10:08.692Z,39.20
2023-09-07T11:12:40.039Z,40.80
2023-09-07T11:15:10.946Z,40.20
2023-09-07T11:17:41.063Z,40.50
2023-09-07T11:20:08.960Z,40.00
2023-09-07T11:22:48.900Z,39.10
2023-09-07T11:25:22.313Z,39.30
2023-09-07T11:27:49.716Z,39.80
2023-09-07T11:30:16.805Z,40.10
2023-09-07T11:32:44.103Z,39.40
2023-09-07T11:35:11.582Z,39.50
2023-09-07T11:37:38.988Z,38.40
2023-09-07T11:40:13.254Z,38.50
2023-09-07T11:42:40.474Z,37.60
2023-09-07T11:45:08.559Z,37.00
2023-09-07T11:47:36.878Z,35.50
2023-09-07T11:50:04.526Z,35.20
2023-09-07T11:52:32.587Z,34.40
2023-09-07T11:54:59.707Z,34.70
2023-09-07T11:57:26.734Z,35.10
2023-09-07T11:59:59.027Z,35.40
2023-09-07T12:02:28.580Z,36.40
2023-09-07T12:04:56.010Z,37.20
2023-09-07T12:07:23.530Z,38.00
2023-09-07T12:09:50.407Z,38.50
2023-09-07T12:12:17.381Z,38.60
2023-09-07T12:14:44.262Z,39.00
2023-09-07T12:17:11.290Z,38.80
2023-09-07T12:19:38.312Z,38.40
2023-09-07T12:22:05.355Z,39.90
2023-09-07T12:24:32.197Z,40.60
2023-09-07T12:26:59.110Z,40.90
2023-09-07T12:29:26.010Z,41.20
2023-09-07T12:31:53.307Z,41.50
2023-09-07T12:34:20.272Z,41.00
2023-09-07T12:36:47.230Z,40.60
2023-09-07T12:39:15.102Z,40.60
2023-09-07T12:41:42.950Z,39.40
2023-09-07T12:44:10.045Z,39.70
2023-09-07T12:46:38.351Z,40.00
2023-09-07T12:49:05.605Z,40.20
2023-09-07T12:51:32.743Z,40.20
2023-09-07T12:53:59.640Z,39.20
2023-09-07T12:56:26.461Z,39.90
2023-09-07T12:58:53.634Z,40.40
2023-09-07T13:01:20.671Z,40.50
2023-09-07T13:03:48.542Z,40.50
2023-09-07T13:06:18.195Z,40.50
2023-09-07T13:08:46.146Z,40.80
2023-09-07T13:11:13.365Z,39.90
2023-09-07T13:13:40.436Z,40.00
2023-09-07T13:16:07.435Z,39.70
2023-09-07T13:18:34.382Z,39.30
2023-09-07T13:21:02.032Z,39.90
2023-09-07T13:23:30.221Z,39.60
2023-09-07T13:25:57.716Z,39.10
2023-09-07T13:28:24.990Z,40.60
2023-09-07T13:30:52.354Z,40.50
2023-09-07T13:33:19.626Z,40.40
2023-09-07T13:35:47.170Z,40.60
2023-09-07T13:38:14.204Z,41.00
2023-09-07T13:40:41.303Z,40.30
2023-09-07T13:43:08.195Z,41.10
2023-09-07T13:45:35.746Z,41.40
2023-09-07T13:48:03.537Z,41.00
2023-09-07T13:50:30.650Z,40.90
2023-09-07T13:52:57.706Z,41.30
2023-09-07T13:55:26.503Z,40.80
2023-09-07T13:57:53.448Z,40.80
2023-09-07T14:00:20.329Z,39.70
2023-09-07T14:02:47.239Z,40.10
2023-09-07T14:05:14.317Z,40.20
2023-09-07T14:07:41.170Z,40.40
2023-09-07T14:10:08.555Z,40.60
2023-09-07T14:12:35.409Z,40.60
2023-09-07T14:15:02.456Z,39.90
2023-09-07T14:17:29.329Z,40.00
2023-09-07T14:19:56.416Z,40.20
2023-09-07T14:22:23.397Z,39.60
2023-09-07T14:24:50.298Z,38.60
2023-09-07T14:27:17.172Z,38.40
2023-09-07T14:29:44.637Z,37.90
2023-09-07T14:32:14.166Z,37.70
2023-09-07T14:34:41.005Z,37.40
2023-09-07T14:37:08.004Z,36.70
2023-09-07T14:39:36.788Z,35.80
2023-09-07T14:42:04.266Z,35.60
2023-09-07T14:44:31.089Z,35.10
2023-09-07T14:46:58.361Z,34.80
2023-09-07T14:49:25.204Z,34.20
2023-09-07T14:51:52.031Z,33.80
2023-09-07T14:54:19.200Z,33.50
2023-09-07T14:56:46.073Z,33.00
2023-09-07T14:59:12.940Z,32.90
2023-09-07T15:01:40.281Z,32.80
2023-09-07T15:04:07.511Z,32.70
2023-09-07T15:06:34.889Z,32.70
2023-09-07T15:09:01.830Z,32.50
2023-09-07T15:11:28.719Z,32.40
2023-09-07T15:13:56.499Z,32.00
2023-09-07T15:16:24.768Z,31.70
2023-09-07T15:18:52.801Z,31.40
2023-09-07T15:21:21.516Z,31.20
2023-09-07T15:23:49.719Z,30.90
2023-09-07T15:26:16.797Z,30.70
2023-09-07T15:28:43.775Z,30.60
2023-09-07T15:31:10.713Z,30.30
2023-09-07T15:33:37.565Z,30.10
2023-09-07T15:36:04.665Z,29.90
2023-09-07T15:38:31.959Z,29.70
2023-09-07T15:40:59.936Z,29.50
2023-09-07T15:43:26.932Z,29.30
2023-09-07T15:45:54.419Z,29.70
2023-09-07T15:48:21.593Z,29.20
2023-09-07T15:50:48.847Z,29.10
2023-09-07T15:53:15.809Z,28.80
2023-09-07T15:55:43.465Z,28.90
2023-09-07T15:58:11.484Z,28.60
2023-09-07T16:00:38.464Z,28.60
2023-09-07T16:03:05.725Z,28.50
2023-09-07T16:05:32.695Z,28.40
2023-09-07T16:07:59.685Z,28.30
2023-09-07T16:10:28.869Z,28.40
2023-09-07T16:12:56.108Z,28.30
2023-09-07T16:15:23.239Z,28.10
2023-09-07T16:17:50.181Z,28.10
2023-09-07T16:20:17.331Z,28.10
2023-09-07T16:22:44.397Z,27.90
2023-09-07T16:25:11.304Z,27.80
2023-09-07T16:27:41.791Z,27.90
2023-09-07T16:30:09.847Z,27.00
2023-09-07T16:32:39.020Z,27.70
2023-09-07T16:35:06.755Z,27.30
2023-09-07T16:37:33.818Z,27.60
2023-09-07T16:40:00.737Z,27.40
2023-09-07T16:42:28.064Z,27.50
2023-09-07T16:44:55.190Z,27.40
2023-09-07T16:47:22.145Z,27.30
2023-09-07T16:49:49.167Z,27.30
2023-09-07T16:52:16.021Z,27.20
2023-09-07T16:54:42.938Z,27.10
2023-09-07T16:57:11.256Z,27.10
2023-09-07T16:59:56.305Z,27.00
2023-09-07T17:02:23.730Z,26.90
2023-09-07T17:04:50.727Z,26.80
2023-09-07T17:07:17.597Z,26.80
2023-09-07T17:10:08.150Z,26.60
2023-09-07T17:12:34.948Z,26.50
2023-09-07T17:15:01.962Z,26.40
2023-09-07T17:17:29.356Z,26.30
2023-09-07T17:19:56.451Z,26.20
2023-09-07T17:22:23.566Z,25.90
2023-09-07T17:24:50.518Z,24.90
2023-09-07T17:27:17.464Z,26.00
2023-09-07T17:29:44.496Z,25.90
2023-09-07T17:32:11.401Z,25.70
2023-09-07T17:34:38.443Z,25.60
2023-09-07T17:37:06.849Z,25.50
2023-09-07T17:39:36.754Z,25.30
2023-09-07T17:42:04.356Z,25.20
2023-09-07T17:44:31.330Z,25.10
2023-09-07T17:46:58.369Z,25.00
2023-09-07T17:49:25.278Z,24.80
2023-09-07T17:51:53.401Z,24.70
2023-09-07T17:54:20.442Z,24.50
2023-09-07T17:56:47.322Z,24.40
2023-09-07T17:59:14.213Z,24.30
2023-09-07T18:01:41.343Z,24.20
2023-09-07T18:04:08.493Z,24.10
2023-09-07T18:06:35.407Z,23.90
2023-09-07T18:09:02.355Z,23.80
2023-09-07T18:11:29.276Z,23.60
2023-09-07T18:14:07.998Z,23.50
2023-09-07T18:16:40.856Z,23.30
2023-09-07T18:19:07.938Z,23.20
2023-09-07T18:21:34.850Z,23.10
2023-09-07T18:24:02.113Z,23.00
2023-09-07T18:26:28.915Z,22.90
2023-09-07T18:28:55.703Z,22.80
2023-09-07T18:31:22.749Z,22.60
2023-09-07T18:33:49.807Z,22.50
2023-09-07T18:36:16.868Z,22.40
2023-09-07T18:38:43.680Z,22.20
2023-09-07T18:41:11.480Z,22.10
2023-09-07T18:43:39.718Z,22.10
2023-09-07T18:46:08.217Z,21.90
2023-09-07T18:48:36.068Z,21.80
2023-09-07T18:51:06.269Z,21.70
2023-09-07T18:53:33.941Z,21.60
2023-09-07T18:56:05.091Z,21.50
2023-09-07T18:58:32.220Z,21.40
2023-09-07T19:00:59.892Z,21.30
2023-09-07T19:03:26.985Z,21.20
2023-09-07T19:05:54.463Z,21.10
2023-09-07T19:08:23.401Z,21.00
2023-09-07T19:10:50.432Z,21.00
2023-09-07T19:13:17.290Z,20.90
2023-09-07T19:15:44.108Z,20.70
2023-09-07T19:18:11.024Z,20.70
2023-09-07T19:20:39.041Z,20.60
2023-09-07T19:23:05.874Z,20.50
2023-09-07T19:25:34.004Z,20.30
2023-09-07T19:28:01.014Z,20.30
2023-09-07T19:30:29.343Z,20.10
2023-09-07T19:32:56.403Z,20.10
2023-09-07T19:35:24.434Z,20.00
2023-09-07T19:37:51.297Z,19.90
2023-09-07T19:40:18.904Z,19.70
2023-09-07T19:42:46.388Z,19.70
2023-09-07T19:45:13.399Z,19.60
2023-09-07T19:47:40.455Z,19.50
2023-09-07T19:50:08.953Z,19.30
2023-09-07T19:52:35.856Z,19.40
2023-09-07T19:55:02.659Z,19.30
2023-09-07T19:57:29.643Z,19.10
2023-09-07T19:59:56.768Z,19.00
2023-09-07T20:02:23.676Z,19.00
2023-09-07T20:04:50.717Z,18.90
2023-09-07T20:07:17.674Z,18.90
2023-09-07T20:09:44.522Z,18.80
2023-09-07T20:12:11.621Z,18.60
2023-09-07T20:14:38.626Z,18.50
2023-09-07T20:17:05.759Z,18.50
2023-09-07T20:19:48.570Z,18.00
2023-09-07T20:22:16.609Z,18.60
2023-09-07T20:24:44.074Z,18.80
2023-09-07T20:27:11.452Z,18.10
2023-09-07T20:29:39.140Z,18.00
2023-09-07T20:32:06.302Z,17.90
2023-09-07T20:34:33.389Z,18.30
2023-09-07T20:37:00.266Z,17.20
2023-09-07T20:39:27.232Z,18.10
2023-09-07T20:41:54.299Z,18.00
2023-09-07T20:44:21.417Z,17.80
2023-09-07T20:46:48.555Z,16.80
2023-09-07T20:49:15.512Z,17.50
2023-09-07T20:51:42.464Z,16.50
2023-09-07T20:54:10.519Z,16.80
2023-09-07T20:56:37.589Z,17.20
2023-09-07T20:59:04.860Z,16.30
2023-09-07T21:01:32.014Z,16.80
2023-09-07T21:03:59.051Z,17.10
2023-09-07T21:06:26.220Z,17.20
2023-09-07T21:08:55.252Z,16.90
2023-09-07T21:11:22.339Z,17.10
2023-09-07T21:13:49.306Z,17.20
2023-09-07T21:16:17.048Z,15.60
2023-09-07T21:18:44.663Z,17.00
2023-09-07T21:21:11.764Z,16.60
2023-09-07T21:50:42.058Z,16.30
2023-09-07T21:53:09.759Z,16.20
2023-09-07T21:55:36.748Z,16.00
2023-09-07T21:58:05.197Z,16.00
2023-09-07T22:02:59.649Z,15.80
2023-09-07T22:07:54.092Z,15.90
2023-09-07T22:12:48.333Z,15.70
2023-09-07T22:15:15.271Z,15.50
2023-09-07T22:17:44.348Z,15.20
2023-09-07T22:20:11.880Z,15.60
2023-09-07T22:22:38.846Z,15.70
2023-09-07T22:25:07.669Z,15.60
2023-09-07T22:27:34.519Z,15.40
2023-09-07T22:30:01.522Z,15.40
2023-09-07T22:32:28.642Z,15.50
2023-09-07T22:39:50.266Z,15.50
2023-09-07T22:42:17.091Z,15.40
2023-09-07T22:47:11.847Z,15.40
2023-09-07T22:52:06.086Z,15.50
2023-09-07T22:54:33.057Z,15.20
2023-09-07T23:43:42.041Z,14.90
2023-09-07T23:46:09.010Z,15.00
2023-09-07T23:48:36.215Z,14.80
2023-09-07T23:51:03.393Z,14.60
2023-09-07T23:53:30.301Z,13.60
2023-09-07T23:55:57.322Z,14.40
2023-09-07T23:58:24.300Z,14.60
